Time;durP1;ratioP1;P1;durP2;ratioP2;P2;SDS_P1;SDS_P2;PMS_P1;PMS_P2;Temp;Humidity;BMP_temperature;BMP_pressure;BME280_temperature;BME280_humidity;BME280_pressure;Samples;Min_cycle;Max_cycle;Signal;HPM_P1;HPM_P2
2021/11/02 00:00:43;;;;;;;4.22;2.10;;;6.50;99.90;;;;;;4889351;29;20052;-83
2021/11/02 00:03:09;;;;;;;4.88;2.45;;;6.40;99.90;;;;;;4917161;29;20476;-83
2021/11/02 00:05:36;;;;;;;4.65;2.60;;;6.40;99.90;;;;;;4884735;29;20043;-82
2021/11/02 00:08:03;;;;;;;6.25;3.58;;;6.40;99.90;;;;;;4895805;29;20043;-76
2021/11/02 00:10:29;;;;;;;8.50;5.40;;;6.40;99.90;;;;;;4888474;29;20039;-76
2021/11/02 00:12:56;;;;;;;8.52;5.25;;;6.40;99.90;;;;;;4873408;29;20037;-76
2021/11/02 00:15:26;;;;;;;6.05;3.90;;;6.40;99.90;;;;;;4878187;29;20281;-75
2021/11/02 00:18:04;;;;;;;6.63;3.30;;;6.40;99.90;;;;;;4902126;29;20503;-78
2021/11/02 00:20:32;;;;;;;4.82;2.38;;;6.40;99.90;;;;;;4914160;29;20036;-79
2021/11/02 00:23:00;;;;;;;4.03;1.90;;;6.40;99.90;;;;;;4882969;29;20028;-82
2021/11/02 00:25:29;;;;;;;3.83;1.70;;;6.40;99.90;;;;;;4882239;29;20040;-82
2021/11/02 00:28:01;;;;;;;3.33;1.80;;;6.40;99.90;;;;;;4867771;29;20460;-82
2021/11/02 00:30:37;;;;;;;3.25;1.33;;;6.40;99.90;;;;;;4881691;29;20032;-83
2021/11/02 00:33:24;;;;;;;3.72;1.38;;;6.30;99.90;;;;;;4871891;29;20048;-84
2021/11/02 00:39:42;;;;;;;4.43;1.52;;;6.30;99.90;;;;;;4916505;29;20032;-85
2021/11/02 00:42:17;;;;;;;4.43;1.85;;;6.20;99.90;;;;;;4870653;29;20052;-81
2021/11/02 00:44:45;;;;;;;3.20;1.38;;;6.10;99.90;;;;;;4870196;29;20753;-85
2021/11/02 00:47:21;;;;;;;3.15;1.23;;;6.20;99.90;;;;;;4870068;29;20048;-81
2021/11/02 00:49:48;;;;;;;3.15;1.10;;;6.10;99.90;;;;;;4902333;29;20504;-84
2021/11/02 00:52:21;;;;;;;3.10;1.55;;;6.10;99.90;;;;;;4868663;29;20052;-84
2021/11/02 00:54:48;;;;;;;3.17;1.38;;;6.10;99.90;;;;;;4885217;29;20040;-83
2021/11/02 00:57:15;;;;;;;4.88;1.23;;;6.00;99.90;;;;;;4900059;29;20036;-84
2021/11/02 00:59:43;;;;;;;3.42;1.25;;;6.00;99.90;;;;;;4868753;29;20102;-85
2021/11/02 01:05:29;;;;;;;4.60;1.85;;;6.00;99.90;;;;;;4893915;29;20040;-86
2021/11/02 01:08:08;;;;;;;5.00;2.25;;;5.90;99.90;;;;;;4892525;29;20032;-86
2021/11/02 01:10:47;;;;;;;3.65;1.77;;;5.90;99.90;;;;;;4860250;29;20507;-87
2021/11/02 01:13:16;;;;;;;3.45;1.70;;;5.90;99.90;;;;;;4894078;29;20039;-88
2021/11/02 01:15:43;;;;;;;4.38;2.08;;;5.90;99.90;;;;;;4884283;29;20080;-86
2021/11/02 01:18:13;;;;;;;5.00;1.90;;;5.90;99.90;;;;;;4876492;29;20362;-87
2021/11/02 01:20:53;;;;;;;2.75;1.33;;;5.80;99.90;;;;;;4882704;29;20062;-80
2021/11/02 01:24:11;;;;;;;4.90;2.20;;;5.80;99.90;;;;;;4878298;29;20508;-81
2021/11/02 01:26:42;;;;;;;4.70;1.77;;;5.80;99.90;;;;;;4871907;29;20051;-78
2021/11/02 01:29:10;;;;;;;3.63;1.98;;;5.80;99.90;;;;;;4908761;29;20028;-83
2021/11/02 01:31:40;;;;;;;4.85;2.75;;;5.80;99.90;;;;;;4870466;29;20045;-86
2021/11/02 01:34:32;;;;;;;3.90;1.95;;;5.80;99.90;;;;;;4878067;29;20052;-82
2021/11/02 01:37:00;;;;;;;4.25;2.38;;;5.80;99.90;;;;;;4904764;29;20039;-83
2021/11/02 01:39:27;;;;;;;5.75;2.08;;;5.80;99.90;;;;;;4889968;29;20040;-84
2021/11/02 01:42:00;;;;;;;4.82;2.40;;;5.70;99.90;;;;;;4881495;29;20037;-83
2021/11/02 01:44:33;;;;;;;4.55;2.05;;;5.80;99.90;;;;;;4874517;29;20047;-83
2021/11/02 01:47:02;;;;;;;4.68;2.70;;;5.70;99.90;;;;;;4877861;29;20044;-84
2021/11/02 01:49:40;;;;;;;4.50;2.42;;;5.70;99.90;;;;;;4873050;29;20040;-84
2021/11/02 01:52:35;;;;;;;6.57;2.58;;;5.70;99.90;;;;;;4881217;29;20040;-82
2021/11/02 01:55:02;;;;;;;4.82;2.67;;;5.70;99.90;;;;;;4890585;29;20028;-82
2021/11/02 01:57:33;;;;;;;6.22;3.47;;;5.70;99.90;;;;;;4903421;29;20527;-82
2021/11/02 02:00:01;;;;;;;6.60;3.33;;;5.70;99.90;;;;;;4873279;29;20047;-82
2021/11/02 02:02:34;;;;;;;6.78;3.17;;;5.70;99.90;;;;;;4842340;29;20045;-83
2021/11/02 02:05:15;;;;;;;7.70;4.32;;;5.60;99.90;;;;;;4887158;29;20037;-83
2021/11/02 02:08:21;;;;;;;6.95;3.55;;;5.60;99.90;;;;;;4863206;29;20033;-83
2021/11/02 02:11:11;;;;;;;5.35;2.78;;;5.60;99.90;;;;;;4871254;29;20040;-83
2021/11/02 02:14:04;;;;;;;6.10;3.58;;;5.60;99.90;;;;;;4843687;29;20052;-83
2021/11/02 02:16:37;;;;;;;5.15;2.85;;;5.60;99.90;;;;;;4893875;29;20036;-83
2021/11/02 02:19:30;;;;;;;4.80;2.10;;;5.60;99.90;;;;;;4884417;29;20032;-84
2021/11/02 02:22:11;;;;;;;10.68;2.75;;;5.50;99.90;;;;;;4885361;29;20024;-83
2021/11/02 02:24:47;;;;;;;4.25;2.40;;;5.50;99.90;;;;;;4891478;29;20397;-83
2021/11/02 02:27:31;;;;;;;6.80;2.83;;;5.50;99.90;;;;;;4887818;29;20042;-83
2021/11/02 02:30:01;;;;;;;4.93;2.30;;;5.50;99.90;;;;;;4874789;29;20044;-83
2021/11/02 02:32:33;;;;;;;4.93;2.85;;;5.50;99.90;;;;;;4889453;29;20044;-83
2021/11/02 02:35:06;;;;;;;6.73;2.13;;;5.50;99.90;;;;;;4891029;29;20047;-83
2021/11/02 02:37:40;;;;;;;5.32;2.35;;;5.50;99.90;;;;;;4880328;29;20637;-83
2021/11/02 02:40:09;;;;;;;6.05;2.80;;;5.40;99.90;;;;;;4868959;29;20032;-83
2021/11/02 02:42:37;;;;;;;8.27;3.10;;;5.40;99.90;;;;;;4872022;29;20388;-83
2021/11/02 02:45:07;;;;;;;5.80;3.08;;;5.30;99.90;;;;;;4884671;29;20485;-83
2021/11/02 02:47:36;;;;;;;3.75;2.63;;;5.30;99.90;;;;;;4870049;29;20052;-76
2021/11/02 02:50:05;;;;;;;6.00;2.40;;;5.30;99.90;;;;;;4867536;29;20057;-77
2021/11/02 02:52:35;;;;;;;5.28;2.85;;;5.30;99.90;;;;;;4850452;29;20040;-77
2021/11/02 02:55:04;;;;;;;4.30;2.15;;;5.30;99.90;;;;;;4868415;29;20044;-77
2021/11/02 02:57:32;;;;;;;6.03;2.70;;;5.30;99.90;;;;;;4865620;29;20041;-76
2021/11/02 03:00:10;;;;;;;4.93;2.97;;;5.30;99.90;;;;;;4882597;29;20049;-76
2021/11/02 03:02:41;;;;;;;5.85;2.78;;;5.30;99.90;;;;;;4883646;29;20047;-76
2021/11/02 03:05:10;;;;;;;7.10;3.40;;;5.30;99.90;;;;;;4900237;29;20491;-76
2021/11/02 03:07:38;;;;;;;6.40;2.65;;;5.20;99.90;;;;;;4871970;29;20047;-76
2021/11/02 03:10:07;;;;;;;5.57;3.10;;;5.20;99.90;;;;;;4899529;29;20043;-83
2021/11/02 03:12:41;;;;;;;7.22;3.67;;;5.20;99.90;;;;;;4888231;29;20039;-85
2021/11/02 03:54:43;;;;;;;6.05;3.10;;;5.10;99.90;;;;;;4902229;29;20036;-76
2021/11/02 03:57:29;;;;;;;5.25;2.42;;;5.10;99.90;;;;;;4887276;29;20032;-76
2021/11/02 05:47:57;;;;;;;4.82;2.30;;;5.10;99.90;;;;;;4873609;29;20480;-76
2021/11/02 05:58:20;;;;;;;5.25;1.42;;;5.00;99.90;;;;;;4903485;29;20036;-76
2021/11/02 06:09:29;;;;;;;3.80;1.70;;;5.00;99.90;;;;;;4883367;29;20051;-76
2021/11/02 06:28:59;;;;;;;3.90;1.75;;;5.00;99.90;;;;;;4886699;29;20488;-84
2021/11/02 06:31:35;;;;;;;3.35;1.80;;;5.00;99.90;;;;;;4915725;29;20047;-84
2021/11/02 06:45:33;;;;;;;5.35;2.00;;;5.00;99.90;;;;;;4899802;29;20110;-82
2021/11/02 06:54:03;;;;;;;3.50;2.20;;;5.10;99.90;;;;;;4919818;29;20047;-84
2021/11/02 07:25:41;;;;;;;3.70;1.90;;;5.50;99.90;;;;;;4861369;29;20045;-76
2021/11/02 08:47:22;;;;;;;5.45;4.00;;;8.00;99.90;;;;;;4898670;29;20048;-78
2021/11/02 08:49:50;;;;;;;7.35;4.97;;;8.10;99.90;;;;;;4915736;29;20032;-78
2021/11/02 08:52:20;;;;;;;5.85;4.65;;;8.10;99.90;;;;;;4913090;29;20036;-78
2021/11/02 08:54:52;;;;;;;8.32;6.00;;;8.10;99.90;;;;;;4899766;29;20032;-79
2021/11/02 08:57:23;;;;;;;6.07;5.30;;;8.20;99.90;;;;;;4885958;29;20487;-78
2021/11/02 08:59:54;;;;;;;8.55;5.95;;;8.20;99.90;;;;;;4900880;29;20051;-76
2021/11/02 09:02:34;;;;;;;8.32;5.00;;;8.30;99.90;;;;;;4886756;29;20075;-77
2021/11/02 09:05:10;;;;;;;9.40;4.97;;;8.40;99.90;;;;;;4900580;29;20036;-77
2021/11/02 09:07:38;;;;;;;10.73;5.43;;;8.40;99.90;;;;;;4898823;29;20032;-78
2021/11/02 09:10:17;;;;;;;8.55;6.13;;;8.50;99.90;;;;;;4887143;29;20712;-78
2021/11/02 09:12:49;;;;;;;7.97;5.78;;;8.50;99.90;;;;;;4903779;29;20043;-79
2021/11/02 09:15:17;;;;;;;7.30;5.57;;;8.60;99.90;;;;;;4880925;29;20043;-78
2021/11/02 09:17:47;;;;;;;7.43;5.15;;;8.60;99.90;;;;;;4884114;29;20036;-80
2021/11/02 09:20:15;;;;;;;8.80;5.13;;;8.60;99.90;;;;;;4916387;29;20036;-79
2021/11/02 09:22:43;;;;;;;8.80;5.05;;;8.70;99.90;;;;;;4916843;29;20516;-80
2021/11/02 09:25:11;;;;;;;9.43;5.55;;;8.70;99.90;;;;;;4900518;29;20040;-80
2021/11/02 09:27:44;;;;;;;7.45;5.38;;;8.70;99.90;;;;;;4886871;29;20048;-80
2021/11/02 09:30:13;;;;;;;6.28;5.30;;;8.70;99.90;;;;;;4888540;29;20475;-81
2021/11/02 09:32:48;;;;;;;7.95;4.10;;;8.80;99.90;;;;;;4868764;29;20487;-79
2021/11/02 09:35:17;;;;;;;7.40;5.45;;;8.80;99.90;;;;;;4883937;29;20047;-79
2021/11/02 09:38:10;;;;;;;8.77;5.40;;;8.80;99.90;;;;;;4897511;29;20024;-79
2021/11/02 09:41:14;;;;;;;6.65;5.28;;;8.90;99.90;;;;;;4902680;29;20043;-80
2021/11/02 09:44:10;;;;;;;7.07;4.90;;;8.90;99.90;;;;;;4924619;29;20039;-80
2021/11/02 09:47:03;;;;;;;9.40;5.05;;;8.90;99.90;;;;;;4872306;29;20048;-79
2021/11/02 09:50:37;;;;;;;9.77;5.65;;;9.00;99.90;;;;;;4914747;29;20110;-80
2021/11/02 09:53:26;;;;;;;;;;;9.00;99.90;;;;;;4805471;29;20038;-79
2021/11/02 09:56:17;;;;;;;7.82;5.00;;;9.10;99.90;;;;;;4886128;29;19919;-79
2021/11/02 09:58:56;;;;;;;11.00;5.03;;;9.20;99.90;;;;;;4914027;29;20040;-79
2021/11/02 10:01:30;;;;;;;8.63;5.28;;;9.20;99.90;;;;;;4898426;29;20047;-79
2021/11/02 10:04:34;;;;;;;10.93;6.13;;;9.30;99.90;;;;;;4900597;29;20028;-79
2021/11/02 10:07:22;;;;;;;8.30;5.68;;;9.30;99.90;;;;;;4869441;29;20051;-79
2021/11/02 10:09:54;;;;;;;5.88;4.40;;;9.30;99.90;;;;;;4895518;29;20040;-82
2021/11/02 10:12:23;;;;;;;7.35;5.47;;;9.20;99.90;;;;;;4867480;29;20047;-80
2021/11/02 10:15:27;;;;;;;7.32;4.57;;;9.20;99.90;;;;;;4886196;29;20043;-83
2021/11/02 10:18:26;;;;;;;9.63;7.53;;;9.20;99.90;;;;;;4875351;29;20500;-79
2021/11/02 10:21:01;;;;;;;12.20;7.93;;;9.20;99.90;;;;;;4904725;29;20055;-80
2021/11/02 10:23:56;;;;;;;10.23;7.50;;;9.30;99.90;;;;;;4916857;29;20054;-79
2021/11/02 10:27:00;;;;;;;9.98;6.25;;;9.30;99.90;;;;;;4903949;29;20040;-79
2021/11/02 10:30:10;;;;;;;8.35;5.32;;;9.40;99.90;;;;;;4917914;29;20047;-78
2021/11/02 10:32:41;;;;;;;6.68;5.10;;;9.50;99.90;;;;;;4863363;29;20059;-80
2021/11/02 10:35:44;;;;;;;8.07;6.07;;;9.60;99.90;;;;;;4904032;29;20633;-80
2021/11/02 10:38:12;;;;;;;10.23;7.22;;;9.60;99.90;;;;;;4900503;29;20032;-78
2021/11/02 10:40:42;;;;;;;6.68;5.10;;;9.70;99.90;;;;;;4897326;29;20040;-78
2021/11/02 10:43:39;;;;;;;7.97;4.97;;;9.80;99.90;;;;;;4900432;29;20047;-78
2021/11/02 10:46:09;;;;;;;6.57;4.97;;;10.00;99.90;;;;;;4890411;29;20385;-78
2021/11/02 10:48:49;;;;;;;8.57;4.97;;;10.10;99.90;;;;;;4902502;29;20416;-78
2021/11/02 10:51:42;;;;;;;6.85;5.10;;;10.10;99.90;;;;;;4900240;29;20035;-78
2021/11/02 10:54:20;;;;;;;6.97;4.63;;;10.10;99.90;;;;;;4897439;29;20112;-79
2021/11/02 10:57:10;;;;;;;6.45;5.53;;;10.10;99.90;;;;;;4881307;29;20044;-77
2021/11/02 10:59:41;;;;;;;8.68;6.53;;;10.10;99.90;;;;;;4860207;29;20043;-78
2021/11/02 11:02:25;;;;;;;8.65;6.35;;;10.00;99.90;;;;;;4898181;29;20036;-77
2021/11/02 11:04:57;;;;;;;10.00;6.03;;;10.10;99.90;;;;;;4896643;29;20024;-76
2021/11/02 11:07:27;;;;;;;7.97;5.43;;;10.10;99.90;;;;;;4880341;29;20047;-75
2021/11/02 11:09:54;;;;;;;9.45;6.32;;;10.10;99.90;;;;;;4885685;29;20775;-77
2021/11/02 11:12:28;;;;;;;8.63;6.00;;;10.10;99.90;;;;;;4898788;29;20054;-78
2021/11/02 11:15:01;;;;;;;9.35;5.53;;;10.20;99.90;;;;;;4881610;29;20039;-77
2021/11/02 11:17:29;;;;;;;8.45;5.47;;;10.30;99.90;;;;;;4903897;29;20510;-75
2021/11/02 11:20:09;;;;;;;7.10;5.00;;;10.40;99.90;;;;;;4914867;29;20047;-79
2021/11/02 11:22:39;;;;;;;10.80;5.50;;;10.40;99.90;;;;;;4886610;29;20028;-76
2021/11/02 11:25:09;;;;;;;9.13;5.75;;;10.40;99.90;;;;;;4867864;29;20025;-80
2021/11/02 11:27:45;;;;;;;7.57;5.22;;;10.50;99.90;;;;;;4896536;29;20048;-76
2021/11/02 11:30:12;;;;;;;6.50;4.97;;;10.60;99.90;;;;;;4918608;29;20056;-78
2021/11/02 11:32:45;;;;;;;6.68;5.78;;;10.70;99.90;;;;;;4905670;29;20047;-82
2021/11/02 11:35:12;;;;;;;7.38;5.28;;;10.70;99.90;;;;;;4913469;29;20392;-78
2021/11/02 11:37:41;;;;;;;8.20;5.05;;;10.70;99.90;;;;;;4867601;29;20055;-77
2021/11/02 11:40:10;;;;;;;6.10;4.68;;;10.70;99.90;;;;;;4902663;29;20036;-78
2021/11/02 11:42:38;;;;;;;7.45;4.85;;;10.70;99.90;;;;;;4914183;29;20491;-77
2021/11/02 11:45:28;;;;;;;8.18;5.65;;;10.60;99.90;;;;;;4902004;29;20043;-77
2021/11/02 11:48:10;;;;;;;10.60;5.18;;;10.70;99.90;;;;;;4912551;29;20024;-79
2021/11/02 11:50:43;;;;;;;9.27;6.55;;;10.70;99.90;;;;;;4884608;29;20036;-83
2021/11/02 11:53:16;;;;;;;6.72;6.00;;;10.70;99.90;;;;;;4884905;29;20036;-84
2021/11/02 11:55:45;;;;;;;8.40;5.90;;;10.70;99.90;;;;;;4885563;29;20028;-82
2021/11/02 11:58:21;;;;;;;5.93;5.32;;;10.70;99.90;;;;;;4882449;29;20040;-86
2021/11/02 12:01:21;;;;;;;9.07;6.38;;;10.80;99.90;;;;;;4875772;29;20048;-86
2021/11/02 12:04:20;;;;;;;8.68;6.35;;;10.80;99.90;;;;;;4922808;29;20040;-86
2021/11/02 12:07:21;;;;;;;12.77;7.57;;;10.80;99.90;;;;;;4873708;29;20051;-86
2021/11/02 12:10:11;;;;;;;6.97;6.28;;;10.70;99.90;;;;;;4887616;29;20051;-79
2021/11/02 12:12:45;;;;;;;9.88;6.68;;;10.80;99.90;;;;;;4900255;29;20046;-79
2021/11/02 12:15:17;;;;;;;7.78;6.15;;;10.80;99.90;;;;;;4886826;29;20407;-78
2021/11/02 12:17:52;;;;;;;6.63;5.95;;;10.80;99.90;;;;;;4885934;29;20416;-79
2021/11/02 12:20:29;;;;;;;8.25;7.15;;;10.90;99.90;;;;;;4863276;29;20037;-78
2021/11/02 12:23:18;;;;;;;6.72;5.72;;;11.10;99.90;;;;;;4901790;29;20028;-80
2021/11/02 12:25:56;;;;;;;6.50;5.43;;;11.20;99.90;;;;;;4874599;29;20054;-78
2021/11/02 12:28:30;;;;;;;9.80;5.82;;;11.20;99.90;;;;;;4894911;29;20039;-77
2021/11/02 12:31:02;;;;;;;10.45;6.63;;;11.20;99.90;;;;;;4886371;29;20040;-77
2021/11/02 12:34:11;;;;;;;8.18;5.28;;;11.20;99.90;;;;;;4889049;29;20043;-80
2021/11/02 12:36:46;;;;;;;8.48;6.15;;;11.20;99.90;;;;;;4917594;29;20114;-78
2021/11/02 12:39:18;;;;;;;7.05;5.85;;;11.10;99.90;;;;;;4924211;29;20054;-84
2021/11/02 12:41:56;;;;;;;6.80;5.27;;;11.10;99.90;;;;;;4881273;29;20037;-78
2021/11/02 12:44:35;;;;;;;6.35;4.95;;;11.00;99.90;;;;;;4858310;29;20028;-76
2021/11/02 12:47:07;;;;;;;6.68;4.93;;;11.00;99.90;;;;;;4919548;29;20467;-77
2021/11/02 12:50:01;;;;;;;5.22;4.32;;;11.00;99.90;;;;;;4898951;29;20036;-78
2021/11/02 12:52:35;;;;;;;7.32;4.93;;;11.00;99.90;;;;;;4915891;29;20767;-79
2021/11/02 12:55:13;;;;;;;6.55;4.82;;;10.90;99.90;;;;;;4901667;29;20377;-81
2021/11/02 12:57:48;;;;;;;5.70;4.50;;;10.90;99.90;;;;;;4889580;29;20036;-78
2021/11/02 13:00:26;;;;;;;7.15;4.90;;;10.80;99.90;;;;;;4883314;29;20035;-79
2021/11/02 13:03:05;;;;;;;11.02;7.28;;;10.70;99.90;;;;;;4881443;29;20039;-81
2021/11/02 13:05:33;;;;;;;11.63;8.18;;;10.80;99.90;;;;;;4894775;29;20033;-81
2021/11/02 13:08:07;;;;;;;7.57;6.57;;;10.80;99.90;;;;;;4906950;29;20044;-81
2021/11/02 13:10:39;;;;;;;6.90;6.20;;;11.00;99.90;;;;;;4910021;29;20055;-85
2021/11/02 13:13:07;;;;;;;7.00;5.20;;;11.00;99.90;;;;;;4880165;29;20372;-83
2021/11/02 13:15:56;;;;;;;6.63;5.40;;;11.10;99.90;;;;;;4906626;29;20032;-83
2021/11/02 13:18:37;;;;;;;6.63;5.03;;;11.20;99.90;;;;;;4902631;29;20052;-83
2021/11/02 13:21:21;;;;;;;8.43;4.75;;;11.20;99.90;;;;;;4902720;29;20032;-83
2021/11/02 13:23:52;;;;;;;6.03;5.00;;;11.20;99.90;;;;;;4906210;29;20036;-82
2021/11/02 13:26:20;;;;;;;6.45;4.75;;;11.20;99.90;;;;;;4907679;29;21383;-83
2021/11/02 13:28:47;;;;;;;4.47;4.07;;;11.10;99.90;;;;;;4856041;29;20037;-83
2021/11/02 13:31:34;;;;;;;4.63;4.13;;;11.10;99.90;;;;;;4892790;29;20040;-83
2021/11/02 13:34:09;;;;;;;7.53;4.35;;;11.10;99.90;;;;;;4906000;29;20037;-83
2021/11/02 13:36:36;;;;;;;4.78;4.28;;;11.20;99.90;;;;;;4906421;29;20484;-83
2021/11/02 13:39:05;;;;;;;6.75;4.82;;;11.20;99.90;;;;;;4879472;29;20044;-83
2021/11/02 13:41:50;;;;;;;6.32;4.45;;;11.30;99.90;;;;;;4903569;29;20028;-82
2021/11/02 13:44:18;;;;;;;5.72;4.47;;;11.40;99.90;;;;;;4885581;29;20044;-84
2021/11/02 13:46:47;;;;;;;9.90;8.10;;;11.50;99.90;;;;;;4903976;29;20481;-85
2021/11/02 13:49:15;;;;;;;9.57;7.05;;;11.50;99.90;;;;;;4890007;29;20059;-83
2021/11/02 13:51:42;;;;;;;8.45;5.40;;;11.50;99.90;;;;;;4892070;29;20048;-84
2021/11/02 13:54:09;;;;;;;4.97;4.32;;;11.40;99.90;;;;;;4904859;29;20040;-84
2021/11/02 13:56:43;;;;;;;7.63;4.78;;;11.40;99.90;;;;;;4887879;29;20043;-84
2021/11/02 13:59:10;;;;;;;4.72;4.15;;;11.30;99.90;;;;;;4901728;29;20044;-81
2021/11/02 14:01:57;;;;;;;4.25;3.85;;;11.20;99.90;;;;;;4918807;29;20487;-81
2021/11/02 14:04:39;;;;;;;7.30;4.85;;;11.20;99.90;;;;;;4916716;29;20475;-80
2021/11/02 14:07:13;;;;;;;8.13;6.23;;;11.10;99.90;;;;;;4891637;29;20047;-80
2021/11/02 14:09:54;;;;;;;5.93;4.88;;;11.10;99.90;;;;;;4872629;29;20039;-85
2021/11/02 14:12:25;;;;;;;7.38;5.13;;;11.00;99.90;;;;;;4878939;29;20495;-83
2021/11/02 14:15:10;;;;;;;6.30;5.03;;;11.00;99.90;;;;;;4900011;29;20043;-83
2021/11/02 14:17:44;;;;;;;7.82;4.40;;;11.00;99.90;;;;;;4910990;29;20048;-81
2021/11/02 14:20:33;;;;;;;6.22;4.18;;;11.00;99.90;;;;;;4867505;29;21164;-85
2021/11/02 14:23:00;;;;;;;5.63;4.18;;;10.90;99.90;;;;;;4882097;29;20043;-85
2021/11/02 14:25:41;;;;;;;4.35;3.63;;;10.90;99.90;;;;;;4890698;29;20032;-79
2021/11/02 14:28:08;;;;;;;4.53;3.85;;;10.80;99.90;;;;;;4888375;29;20059;-82
2021/11/02 14:30:35;;;;;;;5.35;3.53;;;10.80;99.90;;;;;;4918208;29;20039;-82
2021/11/02 14:33:03;;;;;;;3.30;3.00;;;10.80;99.90;;;;;;4909618;29;20054;-80
2021/11/02 14:35:38;;;;;;;4.25;2.70;;;10.80;99.90;;;;;;4875297;29;20044;-83
2021/11/02 14:38:09;;;;;;;3.85;2.92;;;10.80;99.90;;;;;;4895908;29;20044;-78
2021/11/02 14:40:38;;;;;;;6.93;2.97;;;10.80;99.90;;;;;;4896747;29;20040;-78
2021/11/02 14:43:19;;;;;;;4.53;2.95;;;10.70;99.90;;;;;;4882134;29;20028;-79
2021/11/02 14:45:50;;;;;;;7.50;4.28;;;10.70;99.90;;;;;;4908176;29;20036;-79
2021/11/02 14:48:27;;;;;;;6.05;4.22;;;10.70;99.90;;;;;;4889373;29;20496;-82
2021/11/02 14:50:55;;;;;;;7.38;4.25;;;10.70;99.90;;;;;;4913309;29;20468;-82
2021/11/02 14:53:29;;;;;;;5.13;3.20;;;10.80;99.90;;;;;;4919379;29;20123;-81
2021/11/02 14:56:07;;;;;;;5.47;3.45;;;10.70;99.90;;;;;;4866162;29;20059;-79
2021/11/02 14:58:42;;;;;;;5.18;3.63;;;10.70;99.90;;;;;;4899115;29;20043;-79
2021/11/02 15:01:29;;;;;;;5.63;5.03;;;10.70;99.90;;;;;;4883615;29;20063;-79
2021/11/02 15:04:12;;;;;;;2.28;1.63;;;10.70;99.90;;;;;;4900791;29;20028;-82
2021/11/02 15:06:55;;;;;;;2.92;1.77;;;10.60;99.90;;;;;;4889777;29;20043;-79
2021/11/02 15:09:27;;;;;;;3.30;1.33;;;10.40;99.90;;;;;;4889841;29;20055;-78
2021/11/02 15:11:54;;;;;;;1.73;1.00;;;10.30;99.90;;;;;;4888426;29;20129;-79
2021/11/02 15:14:28;;;;;;;1.60;1.02;;;10.10;99.90;;;;;;4899795;29;20055;-78
2021/11/02 15:17:01;;;;;;;1.38;0.90;;;10.00;99.90;;;;;;4900862;29;20059;-79
2021/11/02 15:19:28;;;;;;;;;;;9.90;99.90;;;;;;4860526;29;20052;-79
2021/11/02 15:21:57;;;;;;;1.85;0.70;;;9.80;99.90;;;;;;4877757;29;19946;-79
2021/11/02 15:24:26;;;;;;;2.67;1.40;;;9.70;99.90;;;;;;4900407;29;20493;-79
2021/11/02 15:26:58;;;;;;;1.27;0.52;;;9.70;99.90;;;;;;4881163;29;20037;-84
2021/11/02 15:29:27;;;;;;;3.83;1.40;;;9.60;99.90;;;;;;4903204;29;20039;-84
2021/11/02 15:32:14;;;;;;;3.00;1.73;;;9.60;99.90;;;;;;4870602;29;20349;-83
2021/11/02 15:34:53;;;;;;;3.00;1.80;;;9.60;99.90;;;;;;4921871;29;20043;-83
2021/11/02 15:37:24;;;;;;;2.40;1.40;;;9.60;99.90;;;;;;4904734;29;20039;-84
2021/11/02 15:40:02;;;;;;;2.70;1.60;;;9.60;99.90;;;;;;4885024;29;20036;-80
2021/11/02 15:42:32;;;;;;;2.83;1.70;;;9.60;99.90;;;;;;4888830;29;20067;-85
2021/11/02 15:45:32;;;;;;;3.83;2.35;;;9.60;99.90;;;;;;4889071;29;20048;-85
2021/11/02 15:48:10;;;;;;;2.75;1.98;;;9.60;99.90;;;;;;4892131;29;20048;-85
2021/11/02 15:50:42;;;;;;;3.03;2.10;;;9.60;99.90;;;;;;4887736;29;20036;-84
2021/11/02 15:53:10;;;;;;;3.33;1.70;;;9.60;99.90;;;;;;4872124;29;20043;-80
2021/11/02 15:55:37;;;;;;;2.50;1.40;;;9.60;99.90;;;;;;4904016;29;20055;-80
2021/11/02 15:58:07;;;;;;;4.40;1.65;;;9.50;99.90;;;;;;4901974;29;20384;-79
2021/11/02 16:00:43;;;;;;;2.05;1.45;;;9.50;99.90;;;;;;4886099;29;20112;-78
2021/11/02 16:03:14;;;;;;;3.38;2.10;;;9.50;99.90;;;;;;4886212;29;20051;-83
2021/11/02 16:05:43;;;;;;;2.85;1.88;;;9.50;99.90;;;;;;4901747;29;20028;-80
2021/11/02 16:08:20;;;;;;;5.95;2.78;;;9.50;99.90;;;;;;4902078;29;20369;-79
2021/11/02 16:11:05;;;;;;;4.28;3.30;;;9.50;99.90;;;;;;4896621;29;20051;-78
2021/11/02 16:13:31;;;;;;;3.80;3.13;;;9.50;99.90;;;;;;4858919;29;20444;-81
2021/11/02 16:15:59;;;;;;;6.43;3.28;;;9.50;99.90;;;;;;4843133;29;20044;-80
2021/11/02 16:18:28;;;;;;;5.22;4.50;;;9.50;99.90;;;;;;4864071;29;20122;-81
2021/11/02 16:21:00;;;;;;;5.03;3.90;;;9.50;99.90;;;;;;4870072;29;20040;-84
2021/11/02 16:23:45;;;;;;;4.43;4.03;;;9.50;99.90;;;;;;4863745;29;20547;-84
2021/11/02 16:26:15;;;;;;;5.78;4.03;;;9.50;99.90;;;;;;4897471;29;20284;-89
2021/11/02 16:28:42;;;;;;;5.50;4.82;;;9.50;99.90;;;;;;4913639;29;20044;-83
2021/11/02 16:31:19;;;;;;;3.90;3.45;;;9.50;99.90;;;;;;4870704;29;20055;-85
2021/11/02 16:33:47;;;;;;;4.50;3.95;;;9.50;99.90;;;;;;4904579;29;20036;-83
2021/11/02 16:36:23;;;;;;;3.47;3.15;;;9.50;99.90;;;;;;4853957;29;20047;-79
2021/11/02 16:38:52;;;;;;;4.10;3.70;;;9.60;99.90;;;;;;4903435;29;20045;-81
2021/11/02 16:41:49;;;;;;;4.80;4.30;;;9.50;99.90;;;;;;4884068;29;20456;-84
2021/11/02 16:44:37;;;;;;;6.30;5.32;;;9.50;99.90;;;;;;4878305;29;20052;-81
2021/11/02 16:47:09;;;;;;;5.40;4.90;;;9.50;99.90;;;;;;4912417;29;20043;-80
2021/11/02 16:49:37;;;;;;;5.60;5.00;;;9.50;99.90;;;;;;4887778;29;20047;-81
2021/11/02 16:52:24;;;;;;;5.63;4.60;;;9.50;99.90;;;;;;4880904;29;20036;-79
2021/11/02 16:54:50;;;;;;;6.10;4.50;;;9.50;99.90;;;;;;4923249;29;20514;-81
2021/11/02 16:57:20;;;;;;;5.60;4.40;;;9.40;99.90;;;;;;4879187;29;20036;-80
2021/11/02 16:59:50;;;;;;;5.20;4.18;;;9.50;99.90;;;;;;4900507;29;20040;-81
2021/11/02 17:02:39;;;;;;;5.75;4.25;;;9.50;99.90;;;;;;4895911;29;20040;-79
2021/11/02 17:05:20;;;;;;;14.27;9.07;;;9.40;99.90;;;;;;4892653;29;20044;-79
2021/11/02 17:08:04;;;;;;;14.60;9.02;;;9.40;99.90;;;;;;4905919;29;20032;-86
2021/11/02 17:10:38;;;;;;;8.10;5.20;;;9.40;99.90;;;;;;4908538;29;20052;-83
2021/11/02 17:13:07;;;;;;;5.65;3.47;;;9.30;99.90;;;;;;4896211;29;20051;-83
2021/11/02 17:15:45;;;;;;;4.25;3.15;;;9.30;99.90;;;;;;4911307;29;20044;-84
2021/11/02 17:18:15;;;;;;;4.30;2.95;;;9.30;99.90;;;;;;4915049;29;20036;-84
2021/11/02 17:20:44;;;;;;;3.95;2.58;;;9.20;99.90;;;;;;4880447;29;20032;-85
2021/11/02 17:23:12;;;;;;;3.10;1.80;;;9.20;99.90;;;;;;4907586;29;20028;-80
2021/11/02 17:25:39;;;;;;;2.63;1.90;;;9.10;99.90;;;;;;4893700;29;20043;-81
2021/11/02 17:28:07;;;;;;;2.38;1.23;;;9.10;99.90;;;;;;4875618;29;20142;-82
2021/11/02 17:30:34;;;;;;;2.65;1.23;;;9.10;99.90;;;;;;4871296;29;20040;-80
2021/11/02 17:33:02;;;;;;;3.25;1.90;;;9.00;99.90;;;;;;4887989;29;20044;-78
2021/11/02 17:35:29;;;;;;;2.80;2.22;;;9.00;99.90;;;;;;4903946;29;20049;-79
2021/11/02 17:37:57;;;;;;;2.95;1.58;;;8.90;99.90;;;;;;4915608;29;20047;-79
2021/11/02 17:40:25;;;;;;;3.95;2.40;;;8.90;99.90;;;;;;4907584;29;20059;-80
2021/11/02 17:43:00;;;;;;;4.40;2.38;;;8.80;99.90;;;;;;4891216;29;20044;-83
2021/11/02 17:45:28;;;;;;;2.55;1.63;;;8.70;99.90;;;;;;4887244;29;20476;-83
2021/11/02 17:47:56;;;;;;;3.20;1.23;;;8.60;99.90;;;;;;4883979;29;20044;-82
2021/11/02 17:50:29;;;;;;;2.90;2.47;;;8.50;99.90;;;;;;4878920;29;20048;-85
2021/11/02 17:52:56;;;;;;;4.18;3.67;;;8.50;99.90;;;;;;4901180;29;20039;-82
2021/11/02 17:55:23;;;;;;;5.47;3.63;;;8.40;99.90;;;;;;4904650;29;20040;-81
2021/11/02 17:57:52;;;;;;;4.65;3.65;;;8.40;99.90;;;;;;4891743;29;20067;-82
2021/11/02 18:00:22;;;;;;;4.47;2.90;;;8.40;99.90;;;;;;4855050;29;20044;-84
2021/11/02 18:02:53;;;;;;;4.45;2.42;;;8.40;99.90;;;;;;4877066;29;20673;-77
2021/11/02 18:05:27;;;;;;;4.78;2.33;;;8.40;99.90;;;;;;4890190;29;20050;-79
2021/11/02 18:07:55;;;;;;;2.75;1.50;;;8.40;99.90;;;;;;4886339;29;20032;-83
2021/11/02 18:10:24;;;;;;;2.40;1.35;;;8.40;99.90;;;;;;4892209;29;20043;-84
2021/11/02 18:12:51;;;;;;;2.83;1.50;;;8.40;99.90;;;;;;4914475;29;20043;-83
2021/11/02 18:15:18;;;;;;;2.88;1.58;;;8.40;99.90;;;;;;4862036;29;20066;-84
2021/11/02 18:17:48;;;;;;;2.03;1.27;;;8.40;99.90;;;;;;4868691;29;20047;-85
2021/11/02 18:20:16;;;;;;;3.38;2.00;;;8.30;99.90;;;;;;4881982;29;20047;-83
2021/11/02 18:22:52;;;;;;;2.47;1.35;;;8.30;99.90;;;;;;4892075;29;20028;-82
2021/11/02 18:25:20;;;;;;;3.08;2.10;;;8.30;99.90;;;;;;4881427;29;20037;-83
2021/11/02 18:27:48;;;;;;;4.35;1.73;;;8.40;99.90;;;;;;4915046;29;20047;-82
2021/11/02 18:30:16;;;;;;;3.42;1.92;;;8.40;99.90;;;;;;4910774;29;20498;-84
2021/11/02 18:32:44;;;;;;;3.88;1.85;;;8.40;99.90;;;;;;4871786;29;20036;-83
2021/11/02 18:35:13;;;;;;;2.90;1.80;;;8.40;99.90;;;;;;4914149;29;20037;-83
2021/11/02 18:37:43;;;;;;;3.67;1.70;;;8.40;99.90;;;;;;4884366;29;20484;-84
2021/11/02 18:40:21;;;;;;;3.92;1.85;;;8.30;99.90;;;;;;4874184;29;20504;-83
2021/11/02 18:42:55;;;;;;;3.38;1.70;;;8.40;99.90;;;;;;4889828;29;20171;-83
2021/11/02 18:45:25;;;;;;;4.07;2.05;;;8.30;99.90;;;;;;4886396;29;20036;-83
2021/11/02 18:47:52;;;;;;;3.03;2.22;;;8.30;99.90;;;;;;4898624;29;20036;-80